Terminal Aerodrome Forecast
Issued by NWS

Home | Current Version | Previous Version | Text Only | Print | Product List | Glossary On
Versions: 1 2 3 4 5 6 7 8 9 10 11 12
000
FTUS42 KMLB 292300
TAFFPR
TAF
KFPR 292336Z 3000/3024 00000KT P6SM SCT250
     FM301400 29008KT P6SM FEW040 SCT250
     FM302100 32010KT P6SM SCT040=

USA.gov is the U.S. government's official web portal to all federal, state and local government web resources and services.